TAM2446 SAZS-SAME
Flight info
| Callsign | TAM2446 |
|---|---|
| Flight time | N/A |
| Altitude | 37000 |
| Route | CHATO1C CHATO UW44 ESITO ESITO1Q |
| Aircraft | A320/M-SDE3FGHIRWY/LB1 |
Departure
| Time | N/A |
|---|---|
| Airport | Teniente Luis Candelaria International Airport (SAZS) |
Arrival
| Time | 2026-05-03 22:44 |
|---|---|
| Airport | Governor Francisco Gabrielli International Airport (SAME) |
| Time | Latitude | Longitude | Altitude | Speed | Heading |
|---|---|---|---|---|---|
| 2026-05-03 21:54 | -39.27931 | -70.62981 | 36735 ft | 467 kts | 1° |
| 2026-05-03 21:55 | -39.21562 | -70.61136 | 36846 ft | 472 kts | 1° |
| 2026-05-03 21:55 | -39.15143 | -70.59275 | 36842 ft | 474 kts | 2° |
| 2026-05-03 21:56 | -39.08707 | -70.57393 | 36840 ft | 475 kts | 2° |
| 2026-05-03 21:56 | -39.02258 | -70.55511 | 36841 ft | 475 kts | 1° |
| 2026-05-03 21:57 | -38.95810 | -70.53643 | 36825 ft | 476 kts | 1° |
| 2026-05-03 21:57 | -38.89337 | -70.51773 | 36818 ft | 477 kts | 1° |
| 2026-05-03 21:58 | -38.82845 | -70.49908 | 36809 ft | 478 kts | 1° |
| 2026-05-03 21:58 | -38.76338 | -70.48044 | 36805 ft | 479 kts | 1° |
| 2026-05-03 21:59 | -38.69836 | -70.46177 | 36818 ft | 480 kts | 1° |
| 2026-05-03 21:59 | -38.63354 | -70.44310 | 36822 ft | 480 kts | 1° |
| 2026-05-03 22:00 | -38.56826 | -70.42433 | 36830 ft | 481 kts | 1° |
| 2026-05-03 22:00 | -38.50298 | -70.40560 | 36845 ft | 481 kts | 1° |
| 2026-05-03 22:01 | -38.43770 | -70.38704 | 36842 ft | 481 kts | 1° |
| 2026-05-03 22:01 | -38.37237 | -70.36842 | 36849 ft | 481 kts | 1° |
| 2026-05-03 22:02 | -38.30740 | -70.34999 | 36852 ft | 480 kts | 0° |
| 2026-05-03 22:02 | -38.24194 | -70.33151 | 36860 ft | 480 kts | 1° |
| 2026-05-03 22:03 | -38.17700 | -70.31371 | 37030 ft | 478 kts | 360° |
| 2026-05-03 22:03 | -38.14453 | -70.30516 | 37137 ft | 478 kts | 359° |
| 2026-05-03 22:03 | -38.11177 | -70.29675 | 37284 ft | 477 kts | 359° |
| 2026-05-03 22:04 | -38.07911 | -70.28859 | 37455 ft | 476 kts | 359° |
| 2026-05-03 22:04 | -38.04690 | -70.28073 | 37648 ft | 474 kts | 359° |
| 2026-05-03 22:04 | -38.01460 | -70.27307 | 37865 ft | 473 kts | 358° |
| 2026-05-03 22:04 | -37.98191 | -70.26554 | 38097 ft | 471 kts | 358° |
| 2026-05-03 22:05 | -37.95011 | -70.25839 | 38342 ft | 469 kts | 358° |
| 2026-05-03 22:05 | -37.91760 | -70.25128 | 38604 ft | 467 kts | 357° |
| 2026-05-03 22:05 | -37.88606 | -70.24455 | 38841 ft | 465 kts | 357° |
| 2026-05-03 22:05 | -37.85420 | -70.23794 | 39099 ft | 462 kts | 357° |
| 2026-05-03 22:06 | -37.82255 | -70.23154 | 39381 ft | 459 kts | 357° |
| 2026-05-03 22:06 | -37.79108 | -70.22533 | 39687 ft | 455 kts | 357° |
| 2026-05-03 22:06 | -37.76015 | -70.21938 | 39993 ft | 450 kts | 357° |
| 2026-05-03 22:06 | -37.72920 | -70.21357 | 40335 ft | 445 kts | 356° |
| 2026-05-03 22:07 | -37.69890 | -70.20800 | 40690 ft | 439 kts | 356° |
| 2026-05-03 22:07 | -37.66887 | -70.20260 | 41066 ft | 433 kts | 356° |
| 2026-05-03 22:07 | -37.63919 | -70.19735 | 41438 ft | 425 kts | 356° |
| 2026-05-03 22:07 | -37.60997 | -70.19225 | 41820 ft | 417 kts | 356° |
| 2026-05-03 22:08 | -37.58177 | -70.18739 | 42181 ft | 407 kts | 356° |
| 2026-05-03 22:08 | -37.55416 | -70.18269 | 42549 ft | 396 kts | 356° |
| 2026-05-03 22:08 | -37.52705 | -70.17812 | 42845 ft | 388 kts | 356° |
| 2026-05-03 22:08 | -37.50050 | -70.17376 | 42678 ft | 389 kts | 356° |
| 2026-05-03 22:09 | -37.47325 | -70.16968 | 42204 ft | 400 kts | 355° |
| 2026-05-03 22:09 | -37.44555 | -70.16594 | 42071 ft | 401 kts | 354° |
| 2026-05-03 22:09 | -37.41813 | -70.16242 | 42406 ft | 390 kts | 354° |
| 2026-05-03 22:10 | -37.36485 | -70.15595 | 42530 ft | 385 kts | 353° |
| 2026-05-03 22:10 | -37.33798 | -70.15319 | 42137 ft | 394 kts | 353° |
| 2026-05-03 22:10 | -37.31022 | -70.15074 | 41989 ft | 396 kts | 352° |
| 2026-05-03 22:10 | -37.28322 | -70.14858 | 42232 ft | 389 kts | 352° |
| 2026-05-03 22:11 | -37.25654 | -70.14655 | 42544 ft | 380 kts | 352° |
| 2026-05-03 22:11 | -37.20317 | -70.14326 | 42138 ft | 390 kts | 351° |
| 2026-05-03 22:11 | -37.17600 | -70.14219 | 41950 ft | 393 kts | 350° |
| 2026-05-03 22:12 | -37.14890 | -70.14137 | 42169 ft | 386 kts | 350° |
| 2026-05-03 22:12 | -37.12230 | -70.14070 | 42485 ft | 377 kts | 349° |
| 2026-05-03 22:12 | -37.09619 | -70.14022 | 42484 ft | 377 kts | 349° |
| 2026-05-03 22:12 | -37.06981 | -70.14007 | 42170 ft | 384 kts | 348° |
| 2026-05-03 22:13 | -37.04295 | -70.14031 | 41959 ft | 390 kts | 348° |
| 2026-05-03 22:13 | -37.01567 | -70.14082 | 42134 ft | 384 kts | 347° |
| 2026-05-03 22:13 | -36.98961 | -70.14142 | 42458 ft | 374 kts | 347° |
| 2026-05-03 22:14 | -36.93744 | -70.14318 | 42088 ft | 381 kts | 346° |
| 2026-05-03 22:14 | -36.91067 | -70.14462 | 41804 ft | 387 kts | 346° |
| 2026-05-03 22:14 | -36.88412 | -70.14627 | 41972 ft | 380 kts | 346° |
| 2026-05-03 22:14 | -36.85794 | -70.14797 | 42312 ft | 371 kts | 346° |
| 2026-05-03 22:15 | -36.84094 | -70.14913 | 42400 ft | 369 kts | 345° |
| 2026-05-03 22:15 | -36.81511 | -70.15109 | 42204 ft | 374 kts | 345° |
| 2026-05-03 22:15 | -36.78889 | -70.15344 | 41881 ft | 381 kts | 344° |
| 2026-05-03 22:16 | -36.73633 | -70.15890 | 42108 ft | 371 kts | 343° |
| 2026-05-03 22:16 | -36.71089 | -70.16169 | 42277 ft | 366 kts | 343° |
| 2026-05-03 22:16 | -36.68531 | -70.16471 | 42090 ft | 371 kts | 343° |
| 2026-05-03 22:16 | -36.65962 | -70.16811 | 41769 ft | 379 kts | 342° |
| 2026-05-03 22:17 | -36.63319 | -70.17195 | 41779 ft | 376 kts | 342° |
| 2026-05-03 22:17 | -36.60784 | -70.17578 | 42074 ft | 367 kts | 342° |
| 2026-05-03 22:17 | -36.58244 | -70.17971 | 42217 ft | 361 kts | 342° |
| 2026-05-03 22:17 | -36.55756 | -70.18375 | 41936 ft | 367 kts | 341° |
| 2026-05-03 22:18 | -36.53253 | -70.18819 | 41602 ft | 375 kts | 340° |
| 2026-05-03 22:18 | -36.48008 | -70.19732 | 40965 ft | 402 kts | 346° |
| 2026-05-03 22:18 | -36.45055 | -70.19692 | 39956 ft | 437 kts | 0° |
| 2026-05-03 22:19 | -36.42099 | -70.18479 | 39125 ft | 472 kts | 21° |
| 2026-05-03 22:19 | -36.39261 | -70.16420 | 38874 ft | 473 kts | 22° |
| 2026-05-03 22:19 | -36.36412 | -70.14328 | 38632 ft | 480 kts | 22° |
| 2026-05-03 22:19 | -36.33505 | -70.12209 | 38334 ft | 487 kts | 22° |
| 2026-05-03 22:20 | -36.30575 | -70.10079 | 38034 ft | 489 kts | 22° |
| 2026-05-03 22:20 | -36.27634 | -70.07945 | 37754 ft | 491 kts | 22° |
| 2026-05-03 22:20 | -36.24684 | -70.05804 | 37477 ft | 489 kts | 22° |
| 2026-05-03 22:20 | -36.21748 | -70.03673 | 37184 ft | 489 kts | 22° |
| 2026-05-03 22:21 | -36.18806 | -70.01539 | 36931 ft | 491 kts | 22° |
| 2026-05-03 22:21 | -36.12910 | -69.97267 | 36949 ft | 492 kts | 22° |
| 2026-05-03 22:22 | -36.07005 | -69.92994 | 36944 ft | 492 kts | 23° |
| 2026-05-03 22:22 | -36.01100 | -69.88722 | 36932 ft | 492 kts | 23° |
| 2026-05-03 22:23 | -35.95200 | -69.84458 | 36928 ft | 491 kts | 23° |
| 2026-05-03 22:23 | -35.89304 | -69.80198 | 36917 ft | 491 kts | 23° |
| 2026-05-03 22:24 | -35.75419 | -69.70171 | 36929 ft | 490 kts | 24° |
| 2026-05-03 22:24 | -35.63613 | -69.61938 | 36895 ft | 480 kts | 12° |
| 2026-05-03 22:24 | -35.56768 | -69.61868 | 37040 ft | 426 kts | 329° |
| 2026-05-03 22:25 | -35.50943 | -69.63828 | 36961 ft | 449 kts | 349° |
| 2026-05-03 22:25 | -35.47775 | -69.63564 | 36984 ft | 467 kts | 6° |
| 2026-05-03 22:25 | -35.41776 | -69.60807 | 36980 ft | 478 kts | 15° |
| 2026-05-03 22:26 | -35.17112 | -69.48567 | 36853 ft | 481 kts | 15° |
| 2026-05-03 22:26 | -34.92260 | -69.36305 | 36838 ft | 483 kts | 15° |
| 2026-05-03 22:27 | -34.67304 | -69.24123 | 36857 ft | 483 kts | 15° |
| 2026-05-03 22:27 | -34.42390 | -69.11996 | 36878 ft | 482 kts | 15° |
| 2026-05-03 22:27 | -34.34046 | -69.07980 | 36944 ft | 493 kts | 13° |
| 2026-05-03 22:28 | -34.30859 | -69.06440 | 36832 ft | 491 kts | 14° |
| 2026-05-03 22:28 | -34.27688 | -69.04898 | 36032 ft | 495 kts | 14° |
| 2026-05-03 22:28 | -34.24462 | -69.03332 | 35020 ft | 502 kts | 14° |
| 2026-05-03 22:28 | -34.21200 | -69.01757 | 34086 ft | 507 kts | 14° |
| 2026-05-03 22:29 | -34.17916 | -69.00175 | 33076 ft | 510 kts | 15° |
| 2026-05-03 22:29 | -34.14615 | -68.98588 | 32026 ft | 512 kts | 15° |
| 2026-05-03 22:29 | -34.11298 | -68.96996 | 30984 ft | 514 kts | 15° |
| 2026-05-03 22:29 | -34.07961 | -68.95397 | 29912 ft | 517 kts | 15° |
| 2026-05-03 22:30 | -34.04615 | -68.93791 | 28635 ft | 519 kts | 15° |
| 2026-05-03 22:30 | -34.01256 | -68.92178 | 27320 ft | 521 kts | 16° |
| 2026-05-03 22:30 | -33.97882 | -68.90555 | 25972 ft | 523 kts | 16° |
| 2026-05-03 22:30 | -33.94495 | -68.88930 | 24587 ft | 525 kts | 17° |
| 2026-05-03 22:31 | -33.91059 | -68.87461 | 23331 ft | 521 kts | 10° |
| 2026-05-03 22:31 | -33.87570 | -68.86604 | 22411 ft | 504 kts | 1° |
| 2026-05-03 22:31 | -33.84124 | -68.86230 | 21476 ft | 492 kts | 358° |
| 2026-05-03 22:31 | -33.80738 | -68.85912 | 20559 ft | 485 kts | 358° |
| 2026-05-03 22:32 | -33.77397 | -68.85597 | 19694 ft | 478 kts | 358° |
| 2026-05-03 22:32 | -33.74152 | -68.85293 | 18867 ft | 471 kts | 358° |
| 2026-05-03 22:32 | -33.70902 | -68.84992 | 18039 ft | 465 kts | 358° |
| 2026-05-03 22:32 | -33.67702 | -68.84700 | 17130 ft | 458 kts | 358° |
| 2026-05-03 22:33 | -33.64546 | -68.84413 | 16269 ft | 450 kts | 359° |
| 2026-05-03 22:33 | -33.61449 | -68.84135 | 15428 ft | 441 kts | 359° |
| 2026-05-03 22:33 | -33.58436 | -68.83863 | 14166 ft | 429 kts | 359° |
| 2026-05-03 22:33 | -33.55488 | -68.83598 | 12918 ft | 422 kts | 360° |
| 2026-05-03 22:34 | -33.52589 | -68.83338 | 12128 ft | 411 kts | 0° |
| 2026-05-03 22:34 | -33.49760 | -68.83082 | 11388 ft | 406 kts | 1° |
| 2026-05-03 22:34 | -33.46978 | -68.82831 | 11078 ft | 392 kts | 1° |
| 2026-05-03 22:34 | -33.44325 | -68.82588 | 10947 ft | 372 kts | 1° |
| 2026-05-03 22:35 | -33.41803 | -68.82357 | 10832 ft | 355 kts | 1° |
| 2026-05-03 22:35 | -33.39370 | -68.82136 | 10471 ft | 348 kts | 1° |
| 2026-05-03 22:35 | -33.37010 | -68.81925 | 10399 ft | 332 kts | 1° |
| 2026-05-03 22:35 | -33.34748 | -68.81723 | 10312 ft | 319 kts | 1° |
| 2026-05-03 22:36 | -33.32578 | -68.81531 | 10251 ft | 306 kts | 1° |
| 2026-05-03 22:36 | -33.30496 | -68.81349 | 10187 ft | 294 kts | 1° |
| 2026-05-03 22:36 | -33.28469 | -68.81175 | 10129 ft | 295 kts | 1° |
| 2026-05-03 22:36 | -33.26410 | -68.81007 | 10064 ft | 298 kts | 1° |
| 2026-05-03 22:37 | -33.24341 | -68.80848 | 10002 ft | 299 kts | 1° |
| 2026-05-03 22:37 | -33.22290 | -68.80698 | 9642 ft | 301 kts | 1° |
| 2026-05-03 22:37 | -33.20158 | -68.80550 | 9066 ft | 300 kts | 1° |
| 2026-05-03 22:37 | -33.18120 | -68.80413 | 8557 ft | 294 kts | 2° |
| 2026-05-03 22:38 | -33.16113 | -68.80245 | 8204 ft | 284 kts | 3° |
| 2026-05-03 22:38 | -33.14189 | -68.80063 | 7954 ft | 270 kts | 4° |
| 2026-05-03 22:38 | -33.12420 | -68.79852 | 7764 ft | 265 kts | 5° |
| 2026-05-03 22:38 | -33.10607 | -68.79662 | 7609 ft | 257 kts | 3° |
| 2026-05-03 22:39 | -33.08839 | -68.79565 | 7455 ft | 250 kts | 1° |
| 2026-05-03 22:39 | -33.07127 | -68.79534 | 7308 ft | 243 kts | 359° |
| 2026-05-03 22:39 | -33.05455 | -68.79533 | 7136 ft | 237 kts | 359° |
| 2026-05-03 22:39 | -33.03823 | -68.79523 | 6966 ft | 231 kts | 360° |
| 2026-05-03 22:40 | -33.02250 | -68.79529 | 6891 ft | 219 kts | 359° |
| 2026-05-03 22:40 | -33.00768 | -68.79559 | 6737 ft | 210 kts | 359° |
| 2026-05-03 22:40 | -32.99314 | -68.79565 | 6445 ft | 209 kts | 0° |
| 2026-05-03 22:40 | -32.97865 | -68.79545 | 6155 ft | 207 kts | 1° |
| 2026-05-03 22:41 | -32.96464 | -68.79497 | 5833 ft | 195 kts | 2° |
| 2026-05-03 22:41 | -32.95145 | -68.79427 | 5511 ft | 184 kts | 3° |
| 2026-05-03 22:41 | -32.93885 | -68.79393 | 5151 ft | 179 kts | 359° |
| 2026-05-03 22:41 | -32.92658 | -68.79448 | 4769 ft | 174 kts | 358° |
| 2026-05-03 22:42 | -32.91472 | -68.79425 | 4445 ft | 166 kts | 358° |
| 2026-05-03 22:42 | -32.90356 | -68.79129 | 3984 ft | 162 kts | 11° |
| 2026-05-03 22:42 | -32.89275 | -68.79109 | 3752 ft | 154 kts | 351° |
| 2026-05-03 22:42 | -32.88220 | -68.79314 | 3440 ft | 152 kts | 355° |
| 2026-05-03 22:43 | -32.87167 | -68.79352 | 3109 ft | 151 kts | 0° |
| 2026-05-03 22:43 | -32.86131 | -68.79328 | 2827 ft | 147 kts | 1° |
| 2026-05-03 22:43 | -32.85110 | -68.79318 | 2576 ft | 146 kts | 1° |
| 2026-05-03 22:43 | -32.84105 | -68.79301 | 2399 ft | 139 kts | 1° |
| 2026-05-03 22:44 | -32.83333 | -68.79293 | 2393 ft | 71 kts | 0° |
| 2026-05-03 22:44 | -32.83020 | -68.79290 | 2396 ft | 40 kts | 1° |
| 2026-05-03 22:44 | -32.82753 | -68.79281 | 2399 ft | 38 kts | 2° |
| 2026-05-03 22:44 | -32.82590 | -68.79279 | 2399 ft | 15 kts | 0° |
| 2026-05-03 22:45 | -32.82545 | -68.79310 | 2395 ft | 7 kts | 290° |
| 2026-05-03 22:45 | -32.82549 | -68.79380 | 2395 ft | 10 kts | 247° |
| 2026-05-03 22:45 | -32.82591 | -68.79434 | 2397 ft | 8 kts | 222° |
| 2026-05-03 22:45 | -32.82627 | -68.79474 | 2394 ft | 1 kts | 224° |
| 2026-05-03 22:46 | -32.82643 | -68.79495 | 2393 ft | 7 kts | 232° |
| 2026-05-03 22:46 | -32.82666 | -68.79558 | 2391 ft | 9 kts | 250° |
| 2026-05-03 22:46 | -32.82673 | -68.79644 | 2395 ft | 12 kts | 271° |
| 2026-05-03 22:46 | -32.82680 | -68.79701 | 2394 ft | 5 kts | 227° |
| 2026-05-03 22:47 | -32.82712 | -68.79707 | 2395 ft | 4 kts | 185° |
| 2026-05-03 22:47 | -32.82724 | -68.79738 | 2397 ft | 6 kts | 274° |
| 2026-05-03 22:47 | -32.82722 | -68.79761 | 2396 ft | 1 kts | 272° |
| 2026-05-03 22:47 | -32.82722 | -68.79769 | 2395 ft | 1 kts | 271° |
| 2026-05-03 22:48 | -32.82722 | -68.79778 | 2396 ft | 1 kts | 271° |